createdAt,value
2018-11-20T00:01:35.226Z,98523.48
2018-11-20T00:06:36.128Z,98524.08
2018-11-20T00:11:36.897Z,98508.87
2018-11-20T00:16:37.668Z,98496.48
2018-11-20T00:21:38.438Z,98493.02
2018-11-20T00:26:39.313Z,98473.94
2018-11-20T00:31:40.121Z,98480.99
2018-11-20T00:36:40.900Z,98481.03
2018-11-20T00:41:41.662Z,98481.03
2018-11-20T00:46:42.438Z,98495.42
2018-11-20T00:51:43.257Z,98497.52
2018-11-20T00:56:43.959Z,98485.63
2018-11-20T01:01:44.659Z,98488.70
2018-11-20T01:06:45.360Z,98484.98
2018-11-20T01:11:46.051Z,98492.81
2018-11-20T01:16:46.981Z,98476.09
2018-11-20T01:21:47.710Z,98479.23
2018-11-20T01:26:48.523Z,98474.78
2018-11-20T01:31:49.336Z,98464.52
2018-11-20T01:36:50.062Z,98469.42
2018-11-20T01:41:50.810Z,98456.92
2018-11-20T01:46:51.535Z,98469.08
2018-11-20T01:51:52.549Z,98451.72
2018-11-20T01:56:53.251Z,98448.03
2018-11-20T02:01:53.977Z,98446.15
2018-11-20T02:06:54.718Z,98442.98
2018-11-20T02:11:55.492Z,98444.47
2018-11-20T02:16:56.539Z,98434.69
2018-11-20T02:21:57.239Z,98434.93
2018-11-20T02:26:57.869Z,98427.08
2018-11-20T02:31:58.596Z,98416.88
2018-11-20T02:36:59.339Z,98416.34
2018-11-20T02:42:00.110Z,98406.03
2018-11-20T02:47:00.763Z,98398.78
2018-11-20T02:52:01.504Z,98406.98
2018-11-20T02:57:02.621Z,98394.23
2018-11-20T03:02:03.303Z,98392.25
2018-11-20T03:07:04.030Z,98391.33
2018-11-20T03:12:04.716Z,98389.08
2018-11-20T03:17:05.391Z,98382.79
2018-11-20T03:22:06.028Z,98379.74
2018-11-20T03:27:06.770Z,98371.67
2018-11-20T03:32:07.456Z,98370.61
2018-11-20T03:37:08.310Z,98351.52
2018-11-20T03:42:09.287Z,98349.44
2018-11-20T03:47:10.315Z,98320.78
2018-11-20T03:52:11.548Z,98343.48
2018-11-20T03:57:12.487Z,98339.02
2018-11-20T04:02:13.603Z,98341.94
2018-11-20T04:07:14.668Z,98339.75
2018-11-20T04:12:15.697Z,98348.23
2018-11-20T04:17:16.760Z,98346.81
2018-11-20T04:22:18.868Z,98351.15
2018-11-20T04:27:19.902Z,98339.84
2018-11-20T04:32:21.551Z,98340.31
2018-11-20T04:37:23.302Z,98330.73
2018-11-20T04:42:24.590Z,98332.81
2018-11-20T04:47:26.131Z,98315.63
2018-11-20T04:52:27.462Z,98311.99
2018-11-20T04:57:28.595Z,98304.05
2018-11-20T05:02:29.639Z,98296.20
2018-11-20T05:07:30.564Z,98299.25
2018-11-20T05:12:31.678Z,98311.05
2018-11-20T05:17:35.344Z,98304.84
2018-11-20T05:22:36.381Z,98284.71
2018-11-20T05:27:37.333Z,98279.69
2018-11-20T05:32:38.440Z,98278.53
2018-11-20T05:37:39.495Z,98287.25
2018-11-20T05:42:40.384Z,98287.69
2018-11-20T05:47:41.386Z,98283.77
2018-11-20T05:52:44.713Z,98281.41
2018-11-20T05:57:45.561Z,98285.14
2018-11-20T06:02:46.362Z,98286.34
2018-11-20T06:07:47.509Z,98290.05
2018-11-20T06:12:48.420Z,98289.91
2018-11-20T06:17:49.219Z,98292.23
2018-11-20T06:22:51.009Z,98305.42
2018-11-20T06:27:51.910Z,98313.44
2018-11-20T06:32:52.628Z,98306.23
2018-11-20T06:37:53.613Z,98307.53
2018-11-20T06:42:54.514Z,98296.41
2018-11-20T06:47:55.427Z,98287.83
2018-11-20T06:52:56.711Z,98273.28
2018-11-20T06:57:58.528Z,98297.75
2018-11-20T07:02:59.212Z,98296.63
2018-11-20T07:13:16.481Z,98291.78
2018-11-20T07:18:18.346Z,98289.67
2018-11-20T07:23:19.126Z,98288.73
2018-11-20T07:28:19.956Z,98293.11
2018-11-20T07:33:20.735Z,98298.44
2018-11-20T07:38:21.633Z,98299.98
2018-11-20T07:43:22.598Z,98303.93
2018-11-20T07:48:23.322Z,98302.64
2018-11-20T07:53:24.114Z,98300.20
2018-11-20T07:58:24.978Z,98286.58
2018-11-20T08:03:25.738Z,98287.34
2018-11-20T08:08:26.675Z,98292.50
2018-11-20T08:13:27.325Z,98294.42
2018-11-20T08:18:28.214Z,98290.66
2018-11-20T08:23:28.934Z,98288.66
2018-11-20T08:28:31.714Z,98291.58
2018-11-20T08:33:32.472Z,98288.84
2018-11-20T08:38:33.135Z,98293.19
2018-11-20T08:43:33.890Z,98288.82
2018-11-20T08:48:34.580Z,98280.73
2018-11-20T08:53:35.569Z,98285.58
2018-11-20T08:58:36.202Z,98281.58
2018-11-20T09:03:36.978Z,98276.70
2018-11-20T09:08:37.768Z,98276.70
2018-11-20T09:13:38.494Z,98275.70
2018-11-20T09:18:39.246Z,98270.28
2018-11-20T09:23:40.027Z,98278.47
2018-11-20T09:28:40.690Z,98274.67
2018-11-20T09:33:41.540Z,98277.33
2018-11-20T09:38:42.383Z,98269.78
2018-11-20T09:43:43.208Z,98265.50
2018-11-20T09:48:43.921Z,98262.78
2018-11-20T09:53:44.680Z,98250.84
2018-11-20T09:58:45.445Z,98250.23
2018-11-20T10:03:46.364Z,98253.63
2018-11-20T10:08:47.243Z,98239.97
2018-11-20T10:13:48.325Z,98238.00
2018-11-20T10:18:49.055Z,98232.50
2018-11-20T10:23:49.836Z,98225.00
2018-11-20T10:28:50.563Z,98217.97
2018-11-20T10:33:51.236Z,98213.88
2018-11-20T10:38:52.017Z,98221.09
2018-11-20T10:43:52.753Z,98218.55
2018-11-20T10:48:53.490Z,98223.31
2018-11-20T10:53:54.240Z,98214.12
2018-11-20T10:58:55.122Z,98223.39
2018-11-20T11:03:55.878Z,98224.03
2018-11-20T11:08:56.826Z,98224.74
2018-11-20T11:13:57.957Z,98222.12
2018-11-20T11:18:58.722Z,98222.32
2018-11-20T11:23:59.485Z,98208.95
2018-11-20T11:29:00.286Z,98205.14
2018-11-20T11:34:01.063Z,98195.88
2018-11-20T11:39:01.929Z,98197.56
2018-11-20T11:44:02.939Z,98190.19
2018-11-20T11:49:04.056Z,98188.58
2018-11-20T11:54:04.803Z,98185.86
2018-11-20T11:59:05.616Z,98190.80
2018-11-20T12:09:06.950Z,98206.71
2018-11-20T12:14:07.797Z,98205.14
2018-11-20T12:19:08.611Z,98208.02
2018-11-20T12:24:52.933Z,98207.16
2018-11-20T12:29:55.484Z,98205.53
2018-11-20T12:34:56.648Z,98214.97
2018-11-20T12:39:56.443Z,98217.77
2018-11-20T12:44:56.691Z,98220.00
2018-11-20T12:49:56.557Z,98211.18
2018-11-20T12:54:57.363Z,98212.95
2018-11-20T12:59:58.148Z,98216.30
2018-11-20T13:04:58.726Z,98213.86
2018-11-20T13:10:00.942Z,98212.16
2018-11-20T13:15:01.139Z,98208.50
2018-11-20T13:20:03.883Z,98203.40
2018-11-20T13:25:02.931Z,98201.83
2018-11-20T13:30:03.656Z,98189.11
2018-11-20T13:35:04.400Z,98190.62
2018-11-20T13:40:05.073Z,98180.84
2018-11-20T13:45:06.050Z,98178.81
2018-11-20T13:50:06.723Z,98177.61
2018-11-20T13:55:07.405Z,98178.09
2018-11-20T14:00:08.196Z,98165.91
2018-11-20T14:05:08.864Z,98169.13
2018-11-20T14:10:09.606Z,98160.91
2018-11-20T14:15:10.630Z,98178.03
2018-11-20T14:20:11.332Z,98181.23
2018-11-20T14:25:12.076Z,98176.06
2018-11-20T14:30:12.801Z,98188.80
2018-11-20T14:35:13.550Z,98187.65
2018-11-20T14:40:14.610Z,98190.83
2018-11-20T14:45:15.236Z,98198.19
2018-11-20T14:50:16.074Z,98210.63
2018-11-20T14:55:16.779Z,98213.09
2018-11-20T15:00:17.789Z,98217.30
2018-11-20T15:05:18.514Z,98217.37
2018-11-20T15:10:19.405Z,98216.22
2018-11-20T15:15:21.191Z,98221.00
2018-11-20T15:20:21.962Z,98222.23
2018-11-20T15:25:22.752Z,98223.11
2018-11-20T15:30:23.525Z,98224.40
2018-11-20T15:35:24.486Z,98221.67
2018-11-20T15:40:25.268Z,98221.68
2018-11-20T15:45:29.194Z,98234.78
2018-11-20T15:50:30.032Z,98224.94
2018-11-20T15:55:30.689Z,98231.84
2018-11-20T16:00:31.514Z,98240.62
2018-11-20T16:05:32.291Z,98246.59
2018-11-20T16:10:33.031Z,98252.02
2018-11-20T16:15:33.687Z,98250.92
2018-11-20T16:20:34.426Z,98261.03
2018-11-20T16:25:35.096Z,98254.19
2018-11-20T16:30:35.773Z,98246.64
2018-11-20T16:35:36.699Z,98251.45
2018-11-20T16:40:37.546Z,98255.47
2018-11-20T16:45:38.560Z,98238.28
2018-11-20T16:50:39.492Z,98227.10
2018-11-20T16:55:40.253Z,98203.83
2018-11-20T17:00:41.352Z,98221.88
2018-11-20T17:05:50.029Z,98269.94
2018-11-20T17:10:51.169Z,98297.69
2018-11-20T17:15:51.938Z,98297.36
2018-11-20T17:20:52.933Z,98315.97
2018-11-20T17:25:53.962Z,98328.80
2018-11-20T17:30:54.875Z,98324.06
2018-11-20T17:35:55.536Z,98318.20
2018-11-20T17:40:56.269Z,98325.66
2018-11-20T17:45:58.077Z,98309.70
2018-11-20T17:50:58.743Z,98317.64
2018-11-20T17:55:59.582Z,98303.75
2018-11-20T18:01:00.424Z,98294.45
2018-11-20T18:06:01.093Z,98285.27
2018-11-20T18:11:01.914Z,98290.36
2018-11-20T18:16:05.698Z,98300.00
2018-11-20T18:21:06.497Z,98306.18
2018-11-20T18:26:07.175Z,98303.88
2018-11-20T18:31:07.879Z,98297.48
2018-11-20T18:36:08.490Z,98277.45
2018-11-20T18:41:09.285Z,98283.98
2018-11-20T18:46:10.043Z,98307.81
2018-11-20T18:51:10.996Z,98314.88
2018-11-20T18:56:11.693Z,98332.05
2018-11-20T19:01:12.603Z,98334.98
2018-11-20T19:09:40.699Z,98362.11
2018-11-20T19:14:42.213Z,98360.13
2018-11-20T19:23:10.004Z,98376.35
2018-11-20T19:28:10.760Z,98364.55
2018-11-20T19:33:11.427Z,98359.64
2018-11-20T19:38:12.141Z,98352.71
2018-11-20T19:43:12.893Z,98353.45
2018-11-20T19:48:13.620Z,98362.23
2018-11-20T19:53:14.400Z,98358.61
2018-11-20T19:58:15.216Z,98367.09
2018-11-20T20:03:16.197Z,98394.91
2018-11-20T20:08:16.900Z,98365.60
2018-11-20T20:13:17.700Z,98353.50
2018-11-20T20:18:18.475Z,98355.68
2018-11-20T20:23:19.143Z,98397.54
2018-11-20T20:28:19.799Z,98424.19
2018-11-20T20:33:20.527Z,98424.84
2018-11-20T20:38:21.196Z,98435.40
2018-11-20T20:43:21.999Z,98429.20
2018-11-20T20:48:22.698Z,98445.72
2018-11-20T20:53:23.441Z,98432.60
2018-11-20T20:58:24.091Z,98439.86
2018-11-20T21:03:24.828Z,98453.73
2018-11-20T21:08:25.772Z,98456.06
2018-11-20T21:13:26.601Z,98447.77
2018-11-20T21:18:27.308Z,98471.28
2018-11-20T21:23:28.072Z,98477.17
2018-11-20T21:28:28.734Z,98474.02
2018-11-20T21:33:29.444Z,98474.74
2018-11-20T21:38:30.107Z,98482.34
2018-11-20T21:43:30.856Z,98502.03
2018-11-20T21:48:31.519Z,98492.37
2018-11-20T21:53:32.308Z,98499.98
2018-11-20T21:58:33.089Z,98524.09
2018-11-20T22:03:33.811Z,98530.39
2018-11-20T22:08:34.562Z,98517.86
2018-11-20T22:13:35.242Z,98520.10
2018-11-20T22:18:35.917Z,98529.37
2018-11-20T22:23:36.618Z,98511.61
2018-11-20T22:28:37.432Z,98506.94
2018-11-20T22:33:38.143Z,98531.30
2018-11-20T22:38:38.872Z,98539.47
2018-11-20T22:43:39.686Z,98527.89
2018-11-20T22:48:40.406Z,98527.97
2018-11-20T22:53:41.047Z,98545.96
2018-11-20T22:58:41.737Z,98556.69
2018-11-20T23:03:42.529Z,98550.69
2018-11-20T23:08:43.144Z,98532.90
2018-11-20T23:13:43.897Z,98521.95
2018-11-20T23:18:44.620Z,98509.26
2018-11-20T23:23:45.542Z,98504.26
2018-11-20T23:28:46.329Z,98508.81
2018-11-20T23:33:47.135Z,98504.58
2018-11-20T23:38:47.825Z,98511.59
2018-11-20T23:43:48.639Z,98503.73
2018-11-20T23:48:49.415Z,98503.73
2018-11-20T23:53:50.168Z,98506.53
2018-11-20T23:58:50.907Z,98524.03
